Time;durP1;ratioP1;P1;durP2;ratioP2;P2;SDS_P1;SDS_P2;PMS_P1;PMS_P2;Temp;Humidity;BMP_temperature;BMP_pressure;BME280_temperature;BME280_humidity;BME280_pressure;Samples;Min_cycle;Max_cycle;Signal;HPM_P1;HPM_P2
2022/01/26 00:06:55;;;;;;;24.47;11.40;;;4.00;99.90;;;;;;5053850;28;20201;-74
2022/01/26 00:09:26;;;;;;;24.10;11.83;;;4.00;99.90;;;;;;5055095;28;20286;-75
2022/01/26 00:11:56;;;;;;;22.60;10.97;;;4.00;1.00;;;;;;5061915;28;20284;-74
2022/01/26 00:14:23;;;;;;;23.03;10.57;;;4.00;1.00;;;;;;5065461;28;20222;-74
2022/01/26 00:16:50;;;;;;;24.43;11.50;;;4.00;1.00;;;;;;5054455;28;20294;-74
2022/01/26 00:19:22;;;;;;;24.97;11.00;;;4.00;1.00;;;;;;5055043;28;20649;-74
2022/01/26 00:21:51;;;;;;;22.33;10.10;;;4.00;99.90;;;;;;5060869;28;20197;-74
2022/01/26 00:29:49;;;;;;;21.67;10.20;;;4.00;66.80;;;;;;5054600;28;20325;-74
2022/01/26 00:40:35;;;;;;;25.43;11.30;;;3.90;1.00;;;;;;5065830;28;20223;-74
2022/01/26 00:43:13;;;;;;;25.67;11.73;;;3.90;1.00;;;;;;5070255;28;20210;-74
2022/01/26 00:45:40;;;;;;;27.23;12.77;;;3.90;1.00;;;;;;5057275;28;20207;-75
2022/01/26 00:48:09;;;;;;;26.17;12.63;;;3.90;1.00;;;;;;5050897;28;20604;-74
2022/01/26 00:50:38;;;;;;;25.60;11.90;;;4.00;1.00;;;;;;5051254;28;20250;-74
2022/01/26 00:53:06;;;;;;;28.20;13.93;;;3.90;1.00;;;;;;5053071;28;20203;-74
2022/01/26 00:55:33;;;;;;;29.67;13.30;;;3.90;1.00;;;;;;5051043;28;20353;-74
2022/01/26 00:58:01;;;;;;;28.47;13.03;;;3.90;1.00;;;;;;5050837;28;20202;-74
2022/01/26 01:00:30;;;;;;;30.30;13.10;;;3.90;1.00;;;;;;5051059;28;20226;-73
2022/01/26 01:03:00;;;;;;;29.67;12.87;;;3.90;1.00;;;;;;5050741;28;20215;-74
2022/01/26 01:05:33;;;;;;;28.80;13.37;;;3.90;1.00;;;;;;5064460;28;20194;-74
2022/01/26 01:08:04;;;;;;;28.47;13.30;;;3.90;1.00;;;;;;5060064;28;20217;-74
2022/01/26 01:10:32;;;;;;;25.53;12.10;;;3.80;1.00;;;;;;5064619;28;20482;-74
2022/01/26 01:13:00;;;;;;;24.10;12.20;;;3.80;1.00;;;;;;5048632;28;20202;-74
2022/01/26 01:15:31;;;;;;;26.27;11.43;;;3.80;1.00;;;;;;5048862;28;20223;-74
2022/01/26 01:18:08;;;;;;;26.33;11.80;;;3.90;1.00;;;;;;5054317;28;20253;-74
2022/01/26 01:20:59;;;;;;;27.67;12.13;;;3.90;1.00;;;;;;5059778;28;20249;-74
2022/01/26 01:23:45;;;;;;;22.80;11.13;;;3.80;1.00;;;;;;5049086;28;20199;-74
2022/01/26 01:26:42;;;;;;;28.30;11.40;;;3.80;1.00;;;;;;5054984;28;20254;-74
2022/01/26 01:29:15;;;;;;;23.07;11.00;;;3.80;1.00;;;;;;5049519;28;20199;-74
2022/01/26 01:31:48;;;;;;;22.80;11.03;;;3.80;1.00;;;;;;5050176;28;20195;-74
2022/01/26 01:34:17;;;;;;;23.13;10.87;;;3.90;1.00;;;;;;5060770;28;20283;-74
2022/01/26 01:36:49;;;;;;;25.97;11.00;;;3.80;1.00;;;;;;5052430;28;20211;-74
2022/01/26 01:39:16;;;;;;;24.37;11.13;;;3.80;1.00;;;;;;5052713;28;20606;-74
2022/01/26 01:41:45;;;;;;;25.13;11.17;;;3.80;1.00;;;;;;5054923;28;20596;-75
2022/01/26 01:44:15;;;;;;;24.70;11.20;;;3.80;1.00;;;;;;5050671;28;20720;-74
2022/01/26 01:46:44;;;;;;;24.87;11.90;;;3.80;1.00;;;;;;5069416;28;20206;-74
2022/01/26 01:49:13;;;;;;;25.47;11.17;;;3.80;1.00;;;;;;5053297;28;20671;-74
2022/01/26 01:51:46;;;;;;;25.30;11.80;;;3.80;1.00;;;;;;5067473;28;20209;-74
2022/01/26 01:54:15;;;;;;;27.53;12.50;;;3.80;1.00;;;;;;5050934;28;20226;-74
2022/01/26 01:56:44;;;;;;;27.40;12.97;;;3.80;2.40;;;;;;5056618;28;21447;-74
2022/01/26 01:59:11;;;;;;;27.87;12.53;;;3.80;76.20;;;;;;5048761;28;20203;-74
2022/01/26 02:01:39;;;;;;;26.17;13.23;;;3.80;81.20;;;;;;5064005;28;20668;-74
2022/01/26 02:04:08;;;;;;;26.43;11.77;;;3.70;37.10;;;;;;5052248;28;20195;-74
2022/01/26 02:06:35;;;;;;;25.60;11.97;;;3.70;1.00;;;;;;5049816;28;20203;-74
2022/01/26 02:09:03;;;;;;;23.50;10.50;;;3.80;1.00;;;;;;5050385;28;20195;-74
2022/01/26 02:11:30;;;;;;;24.47;11.00;;;3.80;1.00;;;;;;5049215;28;20301;-74
2022/01/26 02:14:02;;;;;;;25.60;11.17;;;3.70;1.00;;;;;;5065505;28;20203;-74
2022/01/26 02:16:35;;;;;;;22.63;10.83;;;3.80;1.00;;;;;;5064272;28;20673;-74
2022/01/26 02:52:37;;;;;;;24.40;11.40;;;3.70;1.00;;;;;;4950938;28;20257;-73
2022/01/26 02:55:17;;;;;;;21.83;9.10;;;3.70;1.00;;;;;;5042664;28;20223;-73
2022/01/26 02:58:06;;;;;;;22.87;10.00;;;3.70;1.00;;;;;;5069387;28;20609;-74
2022/01/26 03:00:43;;;;;;;27.03;11.60;;;3.70;1.00;;;;;;5062728;28;20726;-74
2022/01/26 03:03:15;;;;;;;25.50;10.53;;;3.70;1.00;;;;;;5058430;28;20209;-73
2022/01/26 03:05:50;;;;;;;26.20;11.07;;;3.70;1.00;;;;;;5051968;28;20206;-73
2022/01/26 03:08:18;;;;;;;24.17;10.97;;;3.60;1.00;;;;;;5060072;28;20593;-73
2022/01/26 03:10:51;;;;;;;24.53;10.73;;;3.70;11.70;;;;;;5069108;28;20218;-73
2022/01/26 03:13:22;;;;;;;24.93;10.73;;;3.70;99.90;;;;;;5072877;28;20537;-73
2022/01/26 03:15:54;;;;;;;25.07;10.80;;;3.60;1.00;;;;;;5064851;28;20223;-73
2022/01/26 03:18:42;;;;;;;25.80;11.97;;;3.60;99.90;;;;;;5054003;28;20209;-73
2022/01/26 03:21:11;;;;;;;28.47;12.57;;;3.70;99.90;;;;;;5054173;28;20228;-73
2022/01/26 03:29:15;;;;;;;30.13;14.27;;;3.70;99.90;;;;;;5053570;28;20284;-73
2022/01/26 03:34:40;;;;;;;26.13;12.13;;;3.70;99.90;;;;;;4952424;29;20222;-73
2022/01/26 03:37:08;;;;;;;29.97;13.73;;;3.60;99.90;;;;;;5036472;28;20202;-73
2022/01/26 03:39:42;;;;;;;28.97;13.50;;;3.60;99.90;;;;;;5063848;28;20239;-73
2022/01/26 03:42:14;;;;;;;32.43;13.90;;;3.60;99.90;;;;;;5068005;28;20209;-73
2022/01/26 03:44:42;;;;;;;31.90;15.30;;;3.60;97.10;;;;;;5072488;28;20228;-73
2022/01/26 03:47:09;;;;;;;32.50;14.47;;;3.70;1.00;;;;;;5060717;28;20249;-73
2022/01/26 03:49:36;;;;;;;33.70;14.43;;;3.60;1.00;;;;;;5053037;28;20268;-73
2022/01/26 03:52:04;;;;;;;30.20;14.57;;;3.60;1.00;;;;;;5066336;28;20202;-74
2022/01/26 03:54:31;;;;;;;31.63;14.37;;;3.60;1.00;;;;;;5061292;28;20257;-74
2022/01/26 03:56:59;;;;;;;36.03;15.87;;;3.70;1.00;;;;;;5053196;28;20858;-74
2022/01/26 03:59:27;;;;;;;32.77;15.50;;;3.60;1.00;;;;;;5052456;28;20195;-74
2022/01/26 04:01:54;;;;;;;32.47;15.30;;;3.60;1.00;;;;;;5053135;28;20286;-74
2022/01/26 04:04:21;;;;;;;37.33;15.37;;;3.60;1.00;;;;;;5058989;28;20661;-74
2022/01/26 04:06:48;;;;;;;32.63;14.97;;;3.60;26.20;;;;;;5071761;28;20206;-74
2022/01/26 04:09:17;;;;;;;33.90;15.90;;;3.60;1.00;;;;;;5067158;28;20198;-73
2022/01/26 04:11:48;;;;;;;34.13;16.10;;;3.60;1.00;;;;;;5066876;28;20224;-74
2022/01/26 04:14:20;;;;;;;33.23;14.30;;;3.60;1.00;;;;;;5053123;28;20867;-73
2022/01/26 04:16:49;;;;;;;32.30;15.00;;;3.60;1.00;;;;;;5064057;28;20598;-73
2022/01/26 04:19:17;;;;;;;32.47;15.03;;;3.60;1.00;;;;;;5062318;28;20272;-73
2022/01/26 04:21:57;;;;;;;31.60;14.63;;;3.60;1.00;;;;;;5052196;28;20629;-73
2022/01/26 04:24:29;;;;;;;28.97;13.43;;;3.60;1.00;;;;;;5052997;28;20586;-68
2022/01/26 04:27:00;;;;;;;33.30;15.50;;;3.60;99.90;;;;;;5052913;28;20203;-68
2022/01/26 04:29:30;;;;;;;36.30;16.63;;;3.60;1.00;;;;;;5053174;28;20245;-68
2022/01/26 04:31:59;;;;;;;36.03;16.73;;;3.60;1.00;;;;;;5052762;28;20203;-68
2022/01/26 04:34:27;;;;;;;33.90;16.17;;;3.60;1.00;;;;;;5052923;28;20233;-68
2022/01/26 04:36:59;;;;;;;35.57;16.37;;;3.60;1.00;;;;;;5052532;28;20277;-68
2022/01/26 04:39:30;;;;;;;40.50;18.50;;;3.60;1.00;;;;;;5052943;28;20210;-68
2022/01/26 04:42:01;;;;;;;43.90;18.13;;;3.50;1.00;;;;;;5052622;28;20212;-68
2022/01/26 04:44:34;;;;;;;41.37;19.50;;;3.60;1.00;;;;;;5052215;28;20213;-68
2022/01/26 04:47:02;;;;;;;40.87;17.57;;;3.50;1.00;;;;;;5052461;28;20414;-68
2022/01/26 04:49:29;;;;;;;42.33;17.20;;;3.60;1.00;;;;;;5052609;28;20265;-68
2022/01/26 04:51:56;;;;;;;44.30;18.53;;;3.50;1.00;;;;;;5052474;28;20202;-68
2022/01/26 04:54:23;;;;;;;46.23;19.83;;;3.50;1.00;;;;;;5052468;28;20198;-68
2022/01/26 04:56:50;;;;;;;43.43;18.03;;;3.50;1.00;;;;;;5052464;28;20276;-68
2022/01/26 04:59:17;;;;;;;44.20;18.40;;;3.50;1.00;;;;;;5052443;28;20203;-68
2022/01/26 05:01:45;;;;;;;43.63;19.13;;;3.50;1.00;;;;;;5061792;28;20203;-68
2022/01/26 05:04:13;;;;;;;45.50;18.77;;;3.50;1.00;;;;;;5070336;28;21032;-68
2022/01/26 05:06:40;;;;;;;47.90;21.27;;;3.40;1.00;;;;;;5068705;28;20272;-68
2022/01/26 05:09:07;;;;;;;49.70;20.40;;;3.50;1.00;;;;;;5064396;28;20210;-67
2022/01/26 05:11:37;;;;;;;51.63;21.87;;;3.40;1.00;;;;;;5071147;28;20202;-68
2022/01/26 05:14:05;;;;;;;46.37;20.17;;;3.50;1.00;;;;;;5062290;28;20260;-68
2022/01/26 05:16:32;;;;;;;45.63;20.80;;;3.40;1.00;;;;;;5063451;28;20318;-68
2022/01/26 05:19:01;;;;;;;49.23;20.83;;;3.40;1.00;;;;;;5070037;28;20210;-68
2022/01/26 05:21:30;;;;;;;51.73;20.50;;;3.40;1.00;;;;;;5056180;28;20234;-68
2022/01/26 05:23:57;;;;;;;46.27;18.73;;;3.40;1.00;;;;;;5071016;28;20621;-73
2022/01/26 05:26:24;;;;;;;47.30;19.87;;;3.40;1.00;;;;;;5050800;28;20269;-73
2022/01/26 05:28:52;;;;;;;52.07;20.17;;;3.40;1.00;;;;;;5051170;28;20217;-73
2022/01/26 05:31:19;;;;;;;52.23;19.40;;;3.40;1.00;;;;;;5051932;28;20203;-73
2022/01/26 05:33:46;;;;;;;43.20;17.80;;;3.40;1.00;;;;;;5050392;28;20284;-73
2022/01/26 05:36:13;;;;;;;46.23;17.50;;;3.40;1.00;;;;;;5050979;28;20670;-73
2022/01/26 05:38:42;;;;;;;46.97;18.33;;;3.40;1.00;;;;;;5051576;28;20252;-73
2022/01/26 05:41:09;;;;;;;44.00;18.00;;;3.40;1.00;;;;;;5051029;28;20203;-73
2022/01/26 05:43:36;;;;;;;45.77;17.87;;;3.30;1.00;;;;;;5051254;28;20666;-73
2022/01/26 05:46:08;;;;;;;43.80;17.60;;;3.30;1.00;;;;;;5055585;28;20276;-73
2022/01/26 05:48:42;;;;;;;43.33;18.00;;;3.30;1.00;;;;;;5061614;28;20206;-73
2022/01/26 05:51:10;;;;;;;47.00;18.03;;;3.30;1.00;;;;;;5052423;28;20215;-73
2022/01/26 05:53:38;;;;;;;47.77;18.93;;;3.30;1.00;;;;;;5052111;28;20280;-73
2022/01/26 05:56:07;;;;;;;47.27;17.73;;;3.30;1.00;;;;;;5054118;28;20696;-73
2022/01/26 05:58:34;;;;;;;44.10;17.63;;;3.30;1.00;;;;;;5055023;28;20198;-73
2022/01/26 06:01:01;;;;;;;45.57;17.57;;;3.30;1.00;;;;;;5062824;28;20249;-73
2022/01/26 06:03:30;;;;;;;47.70;18.87;;;3.30;1.00;;;;;;5063046;28;20206;-73
2022/01/26 06:05:57;;;;;;;45.30;18.53;;;3.30;1.00;;;;;;5067124;28;20211;-73
2022/01/26 06:08:24;;;;;;;46.67;18.27;;;3.20;1.00;;;;;;5055515;28;20203;-73
2022/01/26 06:10:52;;;;;;;54.03;19.50;;;3.20;1.00;;;;;;5054482;28;20211;-73
2022/01/26 06:13:20;;;;;;;51.30;18.87;;;3.20;1.00;;;;;;5055490;28;20351;-73
2022/01/26 06:15:48;;;;;;;46.83;18.27;;;3.20;1.00;;;;;;5055178;28;20222;-73
2022/01/26 06:18:15;;;;;;;46.13;18.60;;;3.20;1.00;;;;;;5054383;28;20675;-73
2022/01/26 06:20:42;;;;;;;46.27;18.37;;;3.20;1.00;;;;;;5054644;28;20215;-73
2022/01/26 06:23:09;;;;;;;50.97;18.83;;;3.20;1.00;;;;;;5053883;28;20199;-73
2022/01/26 06:25:36;;;;;;;49.80;18.37;;;3.20;1.00;;;;;;5054166;28;20211;-73
2022/01/26 06:28:07;;;;;;;50.87;18.33;;;3.10;1.00;;;;;;5054075;28;20617;-73
2022/01/26 06:30:37;;;;;;;52.97;18.30;;;3.20;1.00;;;;;;5054275;28;20634;-73
2022/01/26 06:33:04;;;;;;;55.47;20.93;;;3.10;99.90;;;;;;5054858;28;20230;-73
2022/01/26 06:35:31;;;;;;;48.60;17.70;;;3.10;99.90;;;;;;5053800;28;20249;-73
2022/01/26 06:37:58;;;;;;;45.37;18.70;;;3.10;99.90;;;;;;5053609;28;20199;-73
2022/01/26 06:40:25;;;;;;;45.93;18.23;;;3.10;99.90;;;;;;5054111;28;20352;-73
2022/01/26 06:42:55;;;;;;;53.70;20.70;;;3.10;99.90;;;;;;5054772;28;20254;-73
2022/01/26 06:45:25;;;;;;;52.73;19.10;;;3.10;99.90;;;;;;5053712;28;20222;-73
2022/01/26 06:50:36;;;;;;;54.17;19.27;;;3.10;99.90;;;;;;5052849;28;20195;-73
2022/01/26 06:53:03;;;;;;;56.80;19.90;;;3.10;99.90;;;;;;5045459;28;20669;-73
2022/01/26 06:55:30;;;;;;;57.43;18.93;;;3.10;1.00;;;;;;5054093;28;20272;-73
2022/01/26 06:57:57;;;;;;;57.80;21.00;;;3.10;1.00;;;;;;5052981;28;20195;-73
2022/01/26 07:00:24;;;;;;;57.00;21.10;;;3.10;1.00;;;;;;5054181;28;20260;-73
2022/01/26 07:02:54;;;;;;;53.67;19.47;;;3.10;1.00;;;;;;5054507;28;20199;-73
2022/01/26 07:05:22;;;;;;;52.27;19.73;;;3.10;1.00;;;;;;5053385;28;20249;-73
2022/01/26 07:07:50;;;;;;;52.37;18.70;;;3.10;1.00;;;;;;5052824;28;20642;-73
2022/01/26 07:10:17;;;;;;;62.73;21.43;;;3.10;1.00;;;;;;5053174;28;20199;-73
2022/01/26 07:12:44;;;;;;;63.03;21.57;;;3.10;1.00;;;;;;5052478;28;20251;-73
2022/01/26 07:23:32;;;;;;;60.33;20.50;;;3.00;99.90;;;;;;5054050;28;20198;-73
2022/01/26 07:25:59;;;;;;;59.00;21.13;;;3.00;1.00;;;;;;5053016;28;20206;-73
2022/01/26 07:28:29;;;;;;;61.93;21.30;;;3.00;1.00;;;;;;5053391;28;20253;-73
2022/01/26 07:30:56;;;;;;;63.83;22.00;;;3.00;1.00;;;;;;5053167;28;20207;-73
2022/01/26 07:33:25;;;;;;;58.20;21.17;;;3.00;1.00;;;;;;5053609;28;20207;-73
2022/01/26 07:35:52;;;;;;;61.97;21.53;;;3.10;1.00;;;;;;5053023;28;20226;-73
2022/01/26 07:38:19;;;;;;;65.87;22.47;;;3.10;18.40;;;;;;5053627;28;20203;-73
2022/01/26 07:40:46;;;;;;;59.40;22.70;;;3.00;35.90;;;;;;5053118;28;20633;-73
2022/01/26 07:43:13;;;;;;;61.03;21.57;;;3.10;99.90;;;;;;5052431;28;20203;-73
2022/01/26 07:45:41;;;;;;;60.17;21.97;;;3.00;90.50;;;;;;5052723;28;20649;-73
2022/01/26 07:48:09;;;;;;;63.17;22.57;;;3.10;99.90;;;;;;5053123;28;20882;-73
2022/01/26 07:50:37;;;;;;;63.03;21.40;;;3.00;99.90;;;;;;5051202;28;20650;-68
2022/01/26 07:53:04;;;;;;;62.47;21.13;;;3.00;68.80;;;;;;5052998;28;20257;-68
2022/01/26 07:55:32;;;;;;;63.57;21.33;;;3.00;26.80;;;;;;5053152;28;20210;-68
2022/01/26 07:58:00;;;;;;;65.60;22.33;;;3.00;99.90;;;;;;5052795;28;20230;-68
2022/01/26 08:00:27;;;;;;;55.73;19.37;;;3.00;99.90;;;;;;5053716;28;20210;-68
2022/01/26 08:02:54;;;;;;;58.40;23.17;;;3.00;32.50;;;;;;5052379;28;20207;-68
2022/01/26 08:05:22;;;;;;;59.63;20.67;;;3.00;1.00;;;;;;5051660;28;20588;-68
2022/01/26 08:07:50;;;;;;;60.13;22.43;;;3.10;58.50;;;;;;5053508;28;20547;-68
2022/01/26 08:10:17;;;;;;;71.07;21.93;;;3.00;1.00;;;;;;5052440;28;20207;-68
2022/01/26 08:12:44;;;;;;;63.83;22.07;;;3.00;1.00;;;;;;5052397;28;20207;-68
2022/01/26 08:15:11;;;;;;;70.50;23.03;;;3.00;1.00;;;;;;5051567;28;20261;-68
2022/01/26 08:17:39;;;;;;;63.13;21.97;;;3.00;1.00;;;;;;5050736;28;20219;-68
2022/01/26 08:20:08;;;;;;;57.73;20.40;;;3.00;1.00;;;;;;5052806;28;20210;-68
2022/01/26 08:22:35;;;;;;;58.07;23.03;;;3.00;1.00;;;;;;5052374;28;20529;-68
2022/01/26 08:25:04;;;;;;;68.23;23.77;;;2.90;99.90;;;;;;5052924;28;20850;-67
2022/01/26 08:27:38;;;;;;;74.87;25.27;;;2.90;99.90;;;;;;5052086;28;20563;-68
2022/01/26 08:30:09;;;;;;;74.90;27.70;;;2.90;99.90;;;;;;5052847;28;20626;-68
2022/01/26 08:32:36;;;;;;;85.23;29.93;;;2.90;97.10;;;;;;5052177;28;20294;-68
2022/01/26 08:35:04;;;;;;;79.10;28.63;;;3.00;2.20;;;;;;5050813;28;20662;-68
2022/01/26 08:37:31;;;;;;;82.17;26.90;;;3.00;1.00;;;;;;5052653;28;20226;-68
2022/01/26 08:39:58;;;;;;;83.10;31.00;;;3.00;41.70;;;;;;5051721;28;20242;-68
2022/01/26 08:42:26;;;;;;;78.90;28.70;;;3.00;20.40;;;;;;5052609;28;20250;-68
2022/01/26 08:44:54;;;;;;;89.53;29.80;;;3.00;1.00;;;;;;5051626;28;20433;-68
2022/01/26 08:47:21;;;;;;;84.53;30.50;;;3.00;35.50;;;;;;5051311;28;20207;-68
2022/01/26 08:49:48;;;;;;;88.00;30.73;;;3.00;99.90;;;;;;5051528;28;20247;-68
2022/01/26 08:52:15;;;;;;;92.47;32.50;;;3.00;99.90;;;;;;5050843;28;20255;-68
2022/01/26 08:54:42;;;;;;;97.07;30.47;;;3.00;99.90;;;;;;5051107;28;20203;-68
2022/01/26 08:57:09;;;;;;;82.90;30.53;;;3.00;99.90;;;;;;5050992;28;20231;-68
2022/01/26 08:59:38;;;;;;;90.13;32.10;;;3.00;1.00;;;;;;5051418;28;20222;-68
2022/01/26 09:02:05;;;;;;;101.43;32.97;;;3.00;1.00;;;;;;5052125;28;20207;-68
2022/01/26 09:04:32;;;;;;;83.60;31.33;;;3.00;1.00;;;;;;5051849;28;20199;-68
2022/01/26 09:07:01;;;;;;;97.77;32.17;;;3.00;1.00;;;;;;5052212;28;20211;-68
2022/01/26 09:09:31;;;;;;;95.13;33.80;;;3.00;1.00;;;;;;5051496;28;20252;-68
2022/01/26 09:12:06;;;;;;;96.00;33.47;;;3.00;1.00;;;;;;5051413;28;20642;-68
2022/01/26 09:14:33;;;;;;;89.03;31.77;;;3.00;1.00;;;;;;5033333;28;20642;-68
2022/01/26 09:17:02;;;;;;;98.37;35.33;;;3.10;1.00;;;;;;5051698;28;20282;-67
2022/01/26 09:19:31;;;;;;;95.03;35.23;;;3.00;1.00;;;;;;5052303;28;20646;-68
2022/01/26 09:22:01;;;;;;;97.23;35.27;;;3.10;1.00;;;;;;5052050;28;20302;-68
2022/01/26 09:24:30;;;;;;;99.63;36.10;;;3.00;1.00;;;;;;5051888;28;20237;-68
2022/01/26 09:26:57;;;;;;;94.43;35.47;;;3.00;1.00;;;;;;5051954;28;20203;-68
2022/01/26 09:29:25;;;;;;;100.10;35.40;;;3.00;1.00;;;;;;5051969;28;20226;-68
2022/01/26 09:31:52;;;;;;;99.20;35.83;;;3.00;1.00;;;;;;5052078;28;20202;-67
2022/01/26 09:34:22;;;;;;;98.70;36.10;;;3.00;1.00;;;;;;5051730;28;20203;-68
2022/01/26 09:36:49;;;;;;;93.93;34.63;;;3.00;1.00;;;;;;5051989;28;20280;-68
2022/01/26 09:39:18;;;;;;;95.97;35.17;;;3.00;1.00;;;;;;5051927;28;20665;-68
2022/01/26 09:41:45;;;;;;;94.37;35.37;;;3.00;1.00;;;;;;5051950;28;20203;-68
2022/01/26 09:44:13;;;;;;;96.60;36.63;;;3.00;1.00;;;;;;5051430;28;20234;-68
2022/01/26 09:46:40;;;;;;;100.63;35.80;;;3.00;70.50;;;;;;5052072;28;20658;-68
2022/01/26 09:49:08;;;;;;;91.47;35.53;;;3.00;99.90;;;;;;5051882;28;20201;-68
2022/01/26 09:51:40;;;;;;;98.23;38.70;;;3.00;1.00;;;;;;5051760;28;20245;-68
2022/01/26 09:54:14;;;;;;;102.87;36.43;;;3.00;1.00;;;;;;5051429;28;20249;-68
2022/01/26 09:56:41;;;;;;;92.57;35.00;;;3.00;1.00;;;;;;5051808;28;20654;-68
2022/01/26 09:59:08;;;;;;;89.80;34.47;;;3.00;1.00;;;;;;5051744;28;20246;-68
2022/01/26 10:01:43;;;;;;;96.20;33.97;;;3.00;1.00;;;;;;5051785;28;20195;-68
2022/01/26 10:04:26;;;;;;;97.67;35.37;;;3.00;1.00;;;;;;5051461;28;20202;-68
2022/01/26 10:07:05;;;;;;;92.33;33.57;;;2.90;1.00;;;;;;5050445;28;20203;-68
2022/01/26 10:09:46;;;;;;;99.20;33.70;;;2.90;1.00;;;;;;5051788;28;20253;-68
2022/01/26 10:17:49;;;;;;;85.63;27.37;;;2.90;1.00;;;;;;5025582;28;20219;-68
2022/01/26 10:20:17;;;;;;;100.30;31.63;;;2.80;1.00;;;;;;5051478;28;20206;-68
2022/01/26 10:22:46;;;;;;;94.93;28.37;;;2.80;1.00;;;;;;5051727;28;20677;-68
2022/01/26 10:25:16;;;;;;;90.03;28.97;;;2.90;1.00;;;;;;5051174;28;20199;-68
2022/01/26 10:27:45;;;;;;;92.13;29.47;;;2.90;1.00;;;;;;5051427;28;20211;-68
2022/01/26 10:30:15;;;;;;;90.33;30.60;;;2.90;55.50;;;;;;5051367;28;20264;-68
2022/01/26 10:32:45;;;;;;;86.93;28.57;;;2.90;99.90;;;;;;5051489;28;20661;-68
2022/01/26 10:35:14;;;;;;;85.93;28.40;;;2.90;99.90;;;;;;5051584;28;20850;-68
2022/01/26 10:37:50;;;;;;;80.53;27.00;;;2.90;99.90;;;;;;5051608;28;20609;-68
2022/01/26 10:40:21;;;;;;;85.13;28.27;;;2.90;99.90;;;;;;5051284;28;20253;-67
2022/01/26 10:43:00;;;;;;;85.47;28.67;;;2.90;99.90;;;;;;5054919;28;20633;-68
2022/01/26 10:45:43;;;;;;;91.30;28.20;;;2.90;1.00;;;;;;5054825;28;20301;-68
2022/01/26 10:48:19;;;;;;;85.23;28.10;;;2.90;1.00;;;;;;5063606;28;20206;-68
2022/01/26 10:51:09;;;;;;;80.13;28.37;;;3.00;99.90;;;;;;5044402;28;20210;-68
2022/01/26 10:53:43;;;;;;;77.27;27.13;;;3.00;99.90;;;;;;5055467;28;20214;-68
2022/01/26 10:56:10;;;;;;;82.70;29.23;;;3.10;99.90;;;;;;5066183;28;20212;-68
2022/01/26 10:58:37;;;;;;;89.53;29.17;;;3.00;99.90;;;;;;5072510;28;20257;-68
2022/01/26 11:01:05;;;;;;;81.00;28.70;;;3.10;99.90;;;;;;5072917;28;20281;-68
2022/01/26 11:03:33;;;;;;;82.00;28.07;;;3.10;99.90;;;;;;5065429;28;20199;-68
2022/01/26 11:06:01;;;;;;;80.03;27.40;;;3.20;99.90;;;;;;5053369;28;20207;-68
2022/01/26 11:08:29;;;;;;;90.37;29.87;;;3.30;1.00;;;;;;5054411;28;20648;-68
2022/01/26 11:10:58;;;;;;;85.07;27.93;;;3.20;93.10;;;;;;5054013;28;20623;-68
2022/01/26 11:13:28;;;;;;;90.03;28.83;;;3.40;99.90;;;;;;5054070;28;20261;-68
2022/01/26 11:16:07;;;;;;;92.73;29.23;;;3.40;99.90;;;;;;5054492;28;20215;-68
2022/01/26 11:18:46;;;;;;;83.67;30.07;;;3.40;99.30;;;;;;5053506;28;20222;-68
2022/01/26 11:21:25;;;;;;;80.20;28.47;;;3.30;99.90;;;;;;5052908;28;20645;-68
2022/01/26 11:23:52;;;;;;;85.83;29.03;;;3.20;1.00;;;;;;5052580;28;20257;-73
2022/01/26 11:26:25;;;;;;;87.70;28.77;;;3.30;99.90;;;;;;5053008;28;20290;-73
2022/01/26 11:28:52;;;;;;;88.67;29.83;;;3.30;1.00;;;;;;5052834;28;20294;-73
2022/01/26 11:31:20;;;;;;;83.13;28.63;;;3.30;1.00;;;;;;5054087;28;20207;-73
2022/01/26 11:33:49;;;;;;;86.63;30.30;;;3.30;1.00;;;;;;5053194;28;20260;-73
2022/01/26 11:36:18;;;;;;;81.57;27.83;;;3.20;1.00;;;;;;5053113;28;20246;-73
2022/01/26 11:47:09;;;;;;;94.97;32.90;;;3.30;1.00;;;;;;5052945;28;20214;-74
2022/01/26 11:49:38;;;;;;;85.23;29.27;;;3.30;1.00;;;;;;5051788;28;20207;-73
2022/01/26 11:52:06;;;;;;;81.60;28.57;;;3.30;1.00;;;;;;5053280;28;20203;-73
2022/01/26 11:54:48;;;;;;;76.63;27.80;;;3.40;1.00;;;;;;5052704;28;20638;-73
2022/01/26 11:57:19;;;;;;;89.33;30.23;;;3.40;1.00;;;;;;5051843;28;20233;-73
2022/01/26 11:59:59;;;;;;;89.43;30.37;;;3.40;1.00;;;;;;5058608;28;20210;-73
2022/01/26 12:02:42;;;;;;;82.23;29.70;;;3.40;1.00;;;;;;5071621;28;20914;-73
2022/01/26 12:05:12;;;;;;;89.63;30.20;;;3.40;1.00;;;;;;5059441;28;20210;-73
2022/01/26 12:07:47;;;;;;;85.60;31.17;;;3.40;1.00;;;;;;5072920;28;20202;-73
2022/01/26 12:10:23;;;;;;;93.70;29.97;;;3.40;1.00;;;;;;5071953;28;20201;-73
2022/01/26 12:13:01;;;;;;;91.10;29.73;;;3.40;1.00;;;;;;5071597;28;20206;-73
2022/01/26 12:15:31;;;;;;;87.47;29.90;;;3.40;1.00;;;;;;5070251;28;20209;-73
2022/01/26 12:18:14;;;;;;;86.97;30.90;;;3.40;1.00;;;;;;5072600;28;20624;-73
2022/01/26 12:32:13;;;;;;;92.50;31.33;;;3.40;1.00;;;;;;5072503;28;20205;-73
2022/01/26 12:34:46;;;;;;;96.47;29.87;;;3.50;1.00;;;;;;5070478;28;20289;-73
2022/01/26 12:37:19;;;;;;;92.63;33.40;;;3.40;1.00;;;;;;5072518;28;20206;-73
2022/01/26 12:42:54;;;;;;;94.57;31.80;;;3.50;1.00;;;;;;5072479;28;20209;-73
2022/01/26 12:45:24;;;;;;;87.03;31.00;;;3.50;1.00;;;;;;5070973;28;20218;-73
2022/01/26 12:47:52;;;;;;;85.50;29.83;;;3.60;1.00;;;;;;5072385;28;20202;-73
2022/01/26 12:50:20;;;;;;;94.67;30.87;;;3.60;1.00;;;;;;5071696;28;20240;-73
2022/01/26 12:52:48;;;;;;;98.10;32.03;;;3.50;1.00;;;;;;5071900;28;20206;-73
2022/01/26 12:55:22;;;;;;;89.13;32.40;;;3.60;1.00;;;;;;5071427;28;20572;-74
2022/01/26 12:57:49;;;;;;;92.90;31.90;;;3.60;1.00;;;;;;5070704;28;20267;-73
2022/01/26 13:00:17;;;;;;;91.97;32.17;;;3.60;1.00;;;;;;5071656;28;20268;-73
2022/01/26 13:02:46;;;;;;;87.37;30.60;;;3.60;1.00;;;;;;5057961;28;20198;-73
2022/01/26 13:05:14;;;;;;;85.10;30.47;;;3.60;1.00;;;;;;5050866;28;20260;-73
2022/01/26 13:07:42;;;;;;;92.03;30.80;;;3.60;1.00;;;;;;5057812;28;20210;-73
2022/01/26 13:10:18;;;;;;;91.90;31.57;;;3.60;1.00;;;;;;5056111;28;20221;-73
2022/01/26 13:12:45;;;;;;;86.77;31.50;;;3.60;1.00;;;;;;5060487;28;20255;-73
2022/01/26 13:15:20;;;;;;;92.00;31.03;;;3.50;1.00;;;;;;5054720;28;20203;-73
2022/01/26 13:17:52;;;;;;;92.73;33.03;;;3.60;1.00;;;;;;5051646;28;20227;-73
2022/01/26 13:20:34;;;;;;;99.73;35.60;;;3.60;12.90;;;;;;5050677;28;20207;-73
2022/01/26 13:23:12;;;;;;;89.93;31.87;;;3.60;1.00;;;;;;5051719;28;20256;-73
2022/01/26 13:25:53;;;;;;;93.13;32.27;;;3.50;53.30;;;;;;5033427;28;20215;-73
2022/01/26 13:28:33;;;;;;;94.90;31.80;;;3.50;99.90;;;;;;5033604;28;20254;-73
2022/01/26 13:31:25;;;;;;;94.60;32.00;;;3.60;99.90;;;;;;5032890;28;20297;-74
2022/01/26 13:34:38;;;;;;;95.77;31.97;;;3.60;99.90;;;;;;5050041;28;20642;-75
2022/01/26 13:37:24;;;;;;;88.00;31.53;;;3.60;99.90;;;;;;5050520;28;20241;-74
2022/01/26 13:40:07;;;;;;;96.00;31.33;;;3.60;99.90;;;;;;5061399;28;20206;-74
2022/01/26 14:01:41;;;;;;;79.97;26.73;;;3.60;1.00;;;;;;5011580;27;1523547;-74
2022/01/26 14:04:08;;;;;;;90.00;31.20;;;3.60;99.90;;;;;;5041157;28;20542;-75
2022/01/26 14:06:35;;;;;;;94.77;32.80;;;3.60;1.00;;;;;;5034301;28;20253;-78
2022/01/26 14:09:02;;;;;;;91.97;33.47;;;3.60;1.00;;;;;;5037434;28;20203;-75
2022/01/26 14:11:29;;;;;;;92.17;31.50;;;3.60;1.00;;;;;;5033548;28;20262;-75
2022/01/26 14:13:58;;;;;;;85.60;30.70;;;3.60;1.00;;;;;;5039580;28;20203;-76
2022/01/26 14:16:27;;;;;;;93.20;30.57;;;3.60;1.00;;;;;;5037736;28;20218;-74
2022/01/26 14:19:12;;;;;;;88.17;30.47;;;3.60;1.00;;;;;;5038206;28;20207;-75
2022/01/26 14:24:50;;;;;;;87.60;30.83;;;3.60;1.00;;;;;;5033750;28;20279;-74
2022/01/26 14:27:19;;;;;;;88.87;30.73;;;3.60;1.00;;;;;;5038446;28;20215;-74
2022/01/26 14:30:01;;;;;;;91.43;32.87;;;3.60;1.00;;;;;;5044716;28;20237;-74
2022/01/26 14:52:06;;;;;;;87.23;31.70;;;3.60;1.00;;;;;;6252610;23;20169;-79
2022/01/26 14:54:49;;;;;;;89.20;31.13;;;3.60;1.00;;;;;;6252134;23;20154;-75
2022/01/26 15:00:33;;;;;;;83.97;30.97;;;3.50;1.00;;;;;;6252527;23;20461;-76
2022/01/26 15:08:52;;;;;;;80.07;28.10;;;3.50;99.90;;;;;;6213267;23;20184;-74
2022/01/26 15:33:45;;;;;;;81.70;27.80;;;3.50;1.00;;;;;;6162946;23;20474;-74
2022/01/26 15:44:39;;;;;;;76.23;26.60;;;3.50;1.00;;;;;;6169378;23;20687;-74
2022/01/26 15:49:56;;;;;;;81.63;27.67;;;3.50;1.00;;;;;;6244244;23;20174;-70
2022/01/26 15:52:51;;;;;;;84.53;29.93;;;3.40;1.00;;;;;;6245453;23;20246;-69
2022/01/26 16:06:39;;;;;;;78.13;29.97;;;3.40;24.00;;;;;;6245954;23;20158;-70
2022/01/26 16:18:10;;;;;;;83.17;29.93;;;3.40;99.90;;;;;;6245414;23;21096;-69
2022/01/26 16:20:40;;;;;;;77.80;27.47;;;3.40;99.90;;;;;;6245626;23;20179;-69
2022/01/26 17:24:57;;;;;;;54.50;19.50;;;3.60;1.00;;;;;;6245087;23;20233;-70
2022/01/26 18:17:29;;;;;;;58.40;20.20;;;3.40;99.90;;;;;;6244814;23;20189;-71